Time;durP1;ratioP1;P1;durP2;ratioP2;P2;SDS_P1;SDS_P2;PMS_P1;PMS_P2;Temp;Humidity;BMP_temperature;BMP_pressure;BME280_temperature;BME280_humidity;BME280_pressure;Samples;Min_cycle;Max_cycle;Signal;HPM_P1;HPM_P2
2021/12/07 00:00:56;;;;;;;5.85;3.90;;;1.60;65.40;;;;;;5036902;28;20029;-25
2021/12/07 00:03:22;;;;;;;9.15;4.93;;;1.50;65.50;;;;;;5036903;28;20079;-24
2021/12/07 00:05:50;;;;;;;9.43;4.70;;;1.50;67.80;;;;;;5036793;28;20469;-24
2021/12/07 00:08:16;;;;;;;17.27;9.35;;;1.50;66.50;;;;;;5036893;28;20113;-25
2021/12/07 00:10:43;;;;;;;9.70;6.25;;;1.40;66.90;;;;;;5036822;28;20031;-25
2021/12/07 00:13:11;;;;;;;11.35;5.30;;;1.40;66.30;;;;;;5036592;28;20432;-25
2021/12/07 00:15:38;;;;;;;25.08;10.60;;;1.40;66.20;;;;;;5036653;28;20079;-25
2021/12/07 00:18:05;;;;;;;14.18;6.82;;;1.40;67.70;;;;;;5036872;28;20056;-24
2021/12/07 00:20:32;;;;;;;10.65;5.97;;;1.30;68.20;;;;;;5036310;28;20084;-25
2021/12/07 00:23:01;;;;;;;9.20;4.30;;;1.30;67.10;;;;;;5036876;28;20022;-25
2021/12/07 00:25:28;;;;;;;7.38;3.53;;;1.30;66.70;;;;;;5037012;28;20022;-25
2021/12/07 00:27:54;;;;;;;9.20;4.75;;;1.20;66.40;;;;;;5036460;28;20033;-25
2021/12/07 00:30:20;;;;;;;7.32;4.38;;;1.20;66.70;;;;;;5036197;28;20041;-25
2021/12/07 00:33:06;;;;;;;11.10;6.28;;;1.10;66.60;;;;;;5036157;28;20111;-24
2021/12/07 00:35:34;;;;;;;10.45;5.63;;;1.10;67.10;;;;;;5036646;28;20041;-24
2021/12/07 00:38:07;;;;;;;7.38;4.30;;;1.10;67.10;;;;;;5035270;28;20033;-24
2021/12/07 00:40:33;;;;;;;11.18;5.57;;;1.00;66.80;;;;;;5035999;28;20029;-24
2021/12/07 00:42:59;;;;;;;13.93;7.57;;;1.00;66.90;;;;;;5036209;28;20025;-25
2021/12/07 00:45:26;;;;;;;8.50;4.15;;;1.00;66.90;;;;;;5036089;28;20030;-25
2021/12/07 00:47:54;;;;;;;4.28;2.42;;;0.90;67.00;;;;;;5036371;28;20024;-25
2021/12/07 00:50:23;;;;;;;11.93;6.07;;;0.90;66.60;;;;;;5035975;28;20022;-25
2021/12/07 00:52:49;;;;;;;7.97;4.18;;;0.90;66.60;;;;;;5034769;28;20022;-25
2021/12/07 00:55:22;;;;;;;8.35;4.80;;;0.90;66.60;;;;;;5035602;28;20421;-25
2021/12/07 00:57:52;;;;;;;9.30;4.43;;;0.90;66.30;;;;;;5035767;28;20389;-24
2021/12/07 01:00:19;;;;;;;9.00;3.60;;;0.90;66.30;;;;;;5035994;28;20029;-25
2021/12/07 01:02:46;;;;;;;8.10;4.05;;;0.90;66.30;;;;;;5036663;28;20086;-25
2021/12/07 01:05:25;;;;;;;5.93;3.30;;;0.90;66.60;;;;;;5036035;28;20029;-25
2021/12/07 01:08:09;;;;;;;5.72;3.50;;;1.00;66.40;;;;;;5036072;28;20030;-25
2021/12/07 01:24:43;;;;;;;7.95;4.13;;;1.40;65.80;;;;;;5035717;28;20554;-24
2021/12/07 01:27:13;;;;;;;6.50;3.97;;;1.40;66.00;;;;;;5035687;28;20072;-25
2021/12/07 01:29:41;;;;;;;7.18;3.65;;;1.50;65.60;;;;;;5035321;28;20033;-24
2021/12/07 01:32:29;;;;;;;8.55;4.35;;;1.50;65.50;;;;;;5035247;28;20033;-25
2021/12/07 01:46:00;;;;;;;6.22;3.90;;;1.60;65.50;;;;;;5035637;28;20037;-24
2021/12/07 01:59:34;;;;;;;8.82;4.88;;;1.70;65.80;;;;;;5035071;28;20032;-25
2021/12/07 02:02:15;;;;;;;6.05;3.40;;;1.70;66.20;;;;;;5035077;28;20030;-25
2021/12/07 02:04:42;;;;;;;3.75;2.30;;;1.70;66.10;;;;;;5034979;28;20025;-25
2021/12/07 02:07:10;;;;;;;4.35;3.00;;;1.70;65.90;;;;;;5034390;28;20034;-24
2021/12/07 02:09:40;;;;;;;11.05;6.22;;;1.70;65.80;;;;;;5034854;28;20071;-25
2021/12/07 02:12:08;;;;;;;9.20;4.93;;;1.70;66.60;;;;;;5034568;28;20029;-24
2021/12/07 02:14:34;;;;;;;4.93;3.03;;;1.70;66.30;;;;;;5034484;28;20034;-25
2021/12/07 02:17:07;;;;;;;8.52;4.47;;;1.60;66.30;;;;;;5034375;28;20031;-24
2021/12/07 02:19:33;;;;;;;4.43;2.67;;;1.60;66.40;;;;;;5034561;28;20029;-25
2021/12/07 02:22:00;;;;;;;4.38;2.88;;;1.60;66.20;;;;;;5034645;28;20044;-25
2021/12/07 02:24:28;;;;;;;3.40;2.50;;;1.60;66.10;;;;;;5034126;28;20075;-24
2021/12/07 02:26:55;;;;;;;9.38;4.28;;;1.70;66.30;;;;;;5033020;28;20033;-25
2021/12/07 02:29:21;;;;;;;5.30;3.10;;;1.70;66.90;;;;;;5034792;28;20044;-24
2021/12/07 02:31:50;;;;;;;5.55;2.60;;;1.80;66.50;;;;;;5034392;28;20025;-25
2021/12/07 02:34:16;;;;;;;5.40;2.65;;;1.80;66.30;;;;;;5033636;28;20056;-25
2021/12/07 02:36:44;;;;;;;5.68;3.20;;;1.90;66.20;;;;;;5034047;28;20485;-24
2021/12/07 02:39:12;;;;;;;5.93;3.38;;;1.90;65.90;;;;;;5034504;28;20029;-25
2021/12/07 02:41:40;;;;;;;4.53;2.78;;;2.00;65.80;;;;;;5034555;28;20032;-24
2021/12/07 02:44:07;;;;;;;8.07;4.47;;;2.00;65.60;;;;;;5033908;28;20544;-25
2021/12/07 02:46:36;;;;;;;6.13;3.75;;;2.10;65.90;;;;;;5033646;28;20112;-25
2021/12/07 02:49:06;;;;;;;6.68;3.83;;;2.10;66.10;;;;;;5034374;28;20057;-25
2021/12/07 02:51:33;;;;;;;6.30;3.17;;;2.20;65.70;;;;;;5033721;28;20025;-25
2021/12/07 02:54:00;;;;;;;5.22;2.70;;;2.20;65.70;;;;;;5032757;28;20038;-24
2021/12/07 02:56:26;;;;;;;7.75;4.25;;;2.20;65.60;;;;;;5033430;28;20021;-24
2021/12/07 02:58:59;;;;;;;6.55;3.67;;;2.20;66.00;;;;;;5032463;28;20049;-25
2021/12/07 03:01:30;;;;;;;6.80;3.75;;;2.20;66.40;;;;;;5033770;28;20105;-25
2021/12/07 03:04:10;;;;;;;5.30;3.08;;;2.30;66.70;;;;;;5033923;28;20037;-25
2021/12/07 03:07:00;;;;;;;4.78;2.90;;;2.20;66.30;;;;;;5033425;28;20072;-24
2021/12/07 03:09:56;;;;;;;5.20;2.67;;;2.30;66.00;;;;;;5033434;28;20041;-23
2021/12/07 03:25:57;;;;;;;;;;;2.30;65.90;;;;;;5034212;28;20036;-24
2021/12/07 03:26:12;;;;;;;;;;;2.30;66.40;;;;;;5033922;28;20397;-25
2021/12/07 03:28:49;;;;;;;3.78;2.25;;;2.20;66.70;;;;;;5033061;28;19905;-25
2021/12/07 03:31:17;;;;;;;2.85;1.77;;;2.20;66.10;;;;;;5033213;28;20401;-24
2021/12/07 03:33:44;;;;;;;2.83;1.77;;;2.20;66.10;;;;;;5032863;28;20107;-24
2021/12/07 03:36:12;;;;;;;3.65;1.77;;;2.10;66.30;;;;;;5033101;28;20084;-25
2021/12/07 03:38:39;;;;;;;5.45;3.35;;;2.10;66.20;;;;;;5033197;28;20033;-26
2021/12/07 03:41:06;;;;;;;2.60;2.17;;;2.10;66.40;;;;;;5032959;28;20497;-24
2021/12/07 03:43:32;;;;;;;3.63;2.10;;;2.00;66.70;;;;;;5031831;28;20032;-24
2021/12/07 03:46:00;;;;;;;2.58;1.88;;;2.10;66.40;;;;;;5033231;28;20021;-25
2021/12/07 03:48:27;;;;;;;2.58;1.90;;;2.10;66.60;;;;;;5033121;28;20120;-25
2021/12/07 03:50:53;;;;;;;2.25;1.60;;;2.10;66.60;;;;;;5033234;28;20037;-25
2021/12/07 03:53:19;;;;;;;3.03;1.63;;;2.10;66.50;;;;;;5033254;28;20031;-24
2021/12/07 03:55:45;;;;;;;1.90;1.50;;;2.10;66.40;;;;;;5033041;28;20064;-25
2021/12/07 03:58:12;;;;;;;3.25;1.92;;;2.10;66.40;;;;;;5031795;28;20036;-24
2021/12/07 04:00:41;;;;;;;6.85;3.45;;;2.10;66.50;;;;;;5032648;28;20072;-25
2021/12/07 04:03:10;;;;;;;6.53;3.33;;;2.00;66.50;;;;;;5033313;28;20020;-25
2021/12/07 04:05:45;;;;;;;5.28;2.45;;;2.10;66.40;;;;;;5033339;28;20029;-25
2021/12/07 04:08:20;;;;;;;4.47;2.50;;;2.00;66.40;;;;;;5032874;28;20049;-25
2021/12/07 04:10:46;;;;;;;4.50;1.88;;;2.00;66.30;;;;;;5033080;28;20027;-24
2021/12/07 04:13:13;;;;;;;4.63;3.03;;;2.00;66.40;;;;;;5032819;28;20026;-25
2021/12/07 04:15:39;;;;;;;3.65;2.20;;;2.00;66.60;;;;;;5033035;28;20041;-24
2021/12/07 04:18:06;;;;;;;6.68;3.63;;;2.00;66.60;;;;;;5033049;28;20032;-23
2021/12/07 04:20:33;;;;;;;3.08;2.08;;;2.00;66.40;;;;;;5031330;28;20065;-25
2021/12/07 04:22:59;;;;;;;3.92;1.90;;;1.90;66.50;;;;;;5033574;28;20037;-24
2021/12/07 04:25:26;;;;;;;2.03;1.80;;;1.90;66.50;;;;;;5031417;28;20022;-24
2021/12/07 04:27:54;;;;;;;2.33;1.80;;;1.90;66.50;;;;;;5032869;28;20033;-24
2021/12/07 04:30:30;;;;;;;5.15;2.35;;;1.80;66.40;;;;;;5032442;28;20030;-23
2021/12/07 04:32:58;;;;;;;2.30;1.92;;;1.80;66.40;;;;;;5036171;28;20151;-24
2021/12/07 04:35:25;;;;;;;1.77;1.48;;;1.70;66.50;;;;;;5036292;28;20038;-24
2021/12/07 04:37:51;;;;;;;5.35;3.58;;;1.70;66.50;;;;;;5036301;28;20053;-24
2021/12/07 04:40:22;;;;;;;2.72;2.10;;;1.70;66.90;;;;;;5037107;28;20457;-23
2021/12/07 04:42:48;;;;;;;4.07;2.40;;;1.60;66.90;;;;;;5036225;28;20030;-25
2021/12/07 04:45:31;;;;;;;5.60;3.17;;;1.60;66.90;;;;;;5018812;28;20096;-24
2021/12/07 04:59:00;;;;;;;3.17;1.60;;;1.30;67.40;;;;;;5036240;28;20381;-25
2021/12/07 05:01:27;;;;;;;3.45;2.15;;;1.30;67.30;;;;;;5035885;28;20108;-24
2021/12/07 05:03:56;;;;;;;7.05;3.28;;;1.30;67.30;;;;;;5035934;28;20022;-25
2021/12/07 05:06:29;;;;;;;4.82;3.10;;;1.30;67.90;;;;;;5035868;28;20037;-24
2021/12/07 05:09:02;;;;;;;3.03;2.30;;;1.30;67.90;;;;;;5036037;28;20035;-24
2021/12/07 05:12:21;;;;;;;4.85;2.63;;;1.30;67.70;;;;;;5035627;28;20036;-25
2021/12/07 05:14:25;;;;;;;3.22;2.15;;;1.30;67.50;;;;;;5032562;28;20371;-24
2021/12/07 05:38:28;;;;;;;4.95;3.13;;;0.90;67.50;;;;;;5035307;28;20428;-25
2021/12/07 05:40:54;;;;;;;3.83;2.42;;;0.80;67.70;;;;;;5035033;28;20470;-25
2021/12/07 05:43:20;;;;;;;3.92;2.30;;;0.80;67.90;;;;;;5034095;28;20021;-25
2021/12/07 05:45:46;;;;;;;2.30;1.58;;;0.70;67.80;;;;;;5035084;28;20381;-25
2021/12/07 05:48:13;;;;;;;4.65;2.38;;;0.70;67.80;;;;;;5035378;28;20052;-25
2021/12/07 05:50:41;;;;;;;8.38;5.30;;;0.60;68.10;;;;;;5034941;28;20061;-25
2021/12/07 05:53:09;;;;;;;7.38;4.00;;;0.50;68.40;;;;;;5035509;28;20057;-24
2021/12/07 05:55:37;;;;;;;1.80;1.63;;;0.40;68.50;;;;;;5034765;28;20080;-24
2021/12/07 05:58:04;;;;;;;4.68;3.05;;;0.40;68.60;;;;;;5034799;28;20548;-25
2021/12/07 06:00:35;;;;;;;1.88;1.50;;;0.40;68.80;;;;;;5035642;28;20033;-25
2021/12/07 06:03:06;;;;;;;3.13;2.00;;;0.30;68.60;;;;;;5034769;28;20113;-24
2021/12/07 06:05:34;;;;;;;6.80;3.97;;;0.30;68.50;;;;;;5034685;28;20561;-25
2021/12/07 06:08:01;;;;;;;3.08;1.67;;;0.20;69.00;;;;;;5034791;28;20022;-25
2021/12/07 06:10:27;;;;;;;2.33;1.63;;;0.10;68.90;;;;;;5034719;28;20134;-25
2021/12/07 06:12:54;;;;;;;1.88;1.67;;;0.10;69.20;;;;;;5033679;28;20025;-25
2021/12/07 06:15:23;;;;;;;4.57;2.42;;;0.10;69.10;;;;;;5034442;28;20033;-24
2021/12/07 06:17:50;;;;;;;1.80;1.50;;;0.10;69.20;;;;;;5034450;28;20092;-24
2021/12/07 06:20:17;;;;;;;4.35;2.10;;;0.00;69.20;;;;;;5034170;28;20030;-24
2021/12/07 06:22:43;;;;;;;5.82;2.17;;;0.00;69.20;;;;;;5034329;28;20108;-25
2021/12/07 06:25:10;;;;;;;5.40;2.75;;;0.10;69.10;;;;;;5034162;28;20052;-24
2021/12/07 06:27:38;;;;;;;7.60;3.65;;;0.10;69.10;;;;;;5034226;28;20033;-24
2021/12/07 06:30:06;;;;;;;8.68;4.75;;;0.10;69.30;;;;;;5034532;28;20026;-23
2021/12/07 06:32:32;;;;;;;7.03;2.80;;;0.10;69.40;;;;;;5033922;28;20049;-23
2021/12/07 06:34:58;;;;;;;8.13;4.70;;;0.10;69.50;;;;;;5033851;28;20491;-25
2021/12/07 06:37:24;;;;;;;4.25;2.35;;;0.10;69.80;;;;;;5032837;28;20109;-24
2021/12/07 06:39:51;;;;;;;4.53;2.45;;;0.10;69.40;;;;;;5033844;28;20037;-25
2021/12/07 06:42:17;;;;;;;5.30;2.20;;;0.10;69.30;;;;;;5033754;28;20022;-26
2021/12/07 06:44:43;;;;;;;4.28;2.85;;;0.10;69.20;;;;;;5032730;28;20026;-25
2021/12/07 06:47:09;;;;;;;5.95;2.40;;;0.00;69.10;;;;;;5033829;28;20048;-23
2021/12/07 06:49:35;;;;;;;7.38;3.60;;;0.10;69.10;;;;;;5033819;28;20021;-24
2021/12/07 06:52:03;;;;;;;4.75;1.95;;;0.00;69.40;;;;;;5033762;28;20038;-23
2021/12/07 06:54:29;;;;;;;7.40;3.53;;;0.00;69.20;;;;;;5032991;28;20034;-25
2021/12/07 06:56:55;;;;;;;8.38;3.40;;;0.00;69.20;;;;;;5034012;28;20029;-23
2021/12/07 06:59:22;;;;;;;7.82;4.60;;;0.00;69.20;;;;;;5033657;28;20040;-23
2021/12/07 07:01:49;;;;;;;19.10;8.57;;;0.00;69.00;;;;;;5033643;28;20525;-25
2021/12/07 07:04:15;;;;;;;9.15;3.25;;;0.00;69.50;;;;;;5033467;28;20386;-24
2021/12/07 07:06:42;;;;;;;3.28;2.13;;;0.00;70.20;;;;;;5033801;28;20052;-25
2021/12/07 07:09:10;;;;;;;4.07;2.28;;;0.00;69.30;;;;;;5033519;28;20030;-24
2021/12/07 07:11:36;;;;;;;6.80;4.03;;;0.00;69.20;;;;;;5032112;28;20028;-23
2021/12/07 07:14:03;;;;;;;6.20;3.65;;;0.00;69.70;;;;;;5033335;28;20036;-25
2021/12/07 07:16:30;;;;;;;17.27;7.53;;;0.00;69.70;;;;;;5032047;28;20141;-24
2021/12/07 07:18:57;;;;;;;5.30;3.00;;;0.00;69.80;;;;;;5033403;28;20033;-24
2021/12/07 07:21:23;;;;;;;4.47;2.53;;;0.00;69.50;;;;;;5033640;28;20034;-24
2021/12/07 07:23:52;;;;;;;5.07;2.92;;;0.10;69.40;;;;;;5033610;28;20119;-23
2021/12/07 07:26:18;;;;;;;9.00;4.38;;;0.20;68.90;;;;;;5032962;28;20022;-24
2021/12/07 07:28:44;;;;;;;16.52;8.13;;;0.30;68.70;;;;;;5033158;28;20034;-23
2021/12/07 07:31:12;;;;;;;7.30;4.57;;;0.40;69.30;;;;;;5033199;28;20083;-25
2021/12/07 07:33:38;;;;;;;5.32;2.85;;;0.40;69.50;;;;;;5032764;28;20053;-25
2021/12/07 07:36:06;;;;;;;16.38;9.02;;;0.50;68.70;;;;;;5033413;28;20037;-25
2021/12/07 07:38:32;;;;;;;5.85;3.22;;;0.60;69.10;;;;;;5032841;28;20060;-24
2021/12/07 07:40:58;;;;;;;6.22;3.42;;;0.60;68.90;;;;;;5032969;28;20037;-23
2021/12/07 07:43:25;;;;;;;12.00;5.93;;;0.60;68.50;;;;;;5033336;28;20104;-24
2021/12/07 07:45:52;;;;;;;7.93;4.15;;;0.70;68.60;;;;;;5033421;28;20152;-23
2021/12/07 07:48:21;;;;;;;6.97;3.45;;;0.70;68.80;;;;;;5032995;28;20021;-23
2021/12/07 07:50:48;;;;;;;10.75;6.50;;;0.70;69.00;;;;;;5033243;28;20031;-23
2021/12/07 07:53:14;;;;;;;8.48;4.20;;;0.80;68.80;;;;;;5032977;28;20080;-23
2021/12/07 07:55:42;;;;;;;8.55;3.97;;;0.80;69.20;;;;;;5033072;28;20032;-23
2021/12/07 07:58:09;;;;;;;6.93;3.30;;;0.90;69.60;;;;;;5033245;28;20038;-22
2021/12/07 08:00:36;;;;;;;4.88;3.17;;;0.90;69.10;;;;;;5033071;28;20034;-23
2021/12/07 08:03:03;;;;;;;9.82;5.20;;;1.00;69.10;;;;;;5032903;28;20030;-23
2021/12/07 08:05:30;;;;;;;6.57;3.95;;;1.00;68.90;;;;;;5031673;28;20068;-24
2021/12/07 08:07:56;;;;;;;13.80;9.27;;;1.10;69.60;;;;;;5037172;28;20052;-23
2021/12/07 08:10:28;;;;;;;5.80;3.28;;;1.20;69.40;;;;;;5035254;28;20378;-24
2021/12/07 08:12:57;;;;;;;13.57;7.30;;;1.30;69.00;;;;;;5037667;28;20021;-25
2021/12/07 08:15:25;;;;;;;8.98;4.60;;;1.40;68.80;;;;;;5036668;28;20029;-22
2021/12/07 08:17:51;;;;;;;15.15;7.60;;;1.60;69.00;;;;;;5036664;28;20033;-25
2021/12/07 08:20:17;;;;;;;8.60;4.95;;;1.70;68.50;;;;;;5036430;28;20041;-25
2021/12/07 08:22:44;;;;;;;8.63;4.82;;;1.80;68.80;;;;;;5036592;28;20044;-25
2021/12/07 08:25:09;;;;;;;10.18;6.18;;;1.90;68.20;;;;;;5036744;28;20044;-23
2021/12/07 08:27:36;;;;;;;11.38;6.38;;;2.00;68.30;;;;;;5036656;28;20473;-24
2021/12/07 08:30:05;;;;;;;14.98;10.45;;;2.10;68.40;;;;;;5036505;28;20025;-23
2021/12/07 08:32:31;;;;;;;10.95;6.68;;;2.30;68.90;;;;;;5036503;28;20030;-24
2021/12/07 08:34:57;;;;;;;9.02;4.68;;;2.40;68.70;;;;;;5036134;28;20045;-23
2021/12/07 08:37:23;;;;;;;9.13;4.95;;;2.50;68.30;;;;;;5036313;28;20048;-23
2021/12/07 08:39:49;;;;;;;11.13;7.10;;;2.60;68.60;;;;;;5036160;28;20405;-23
2021/12/07 08:42:17;;;;;;;12.32;6.28;;;2.80;68.30;;;;;;5036057;28;20040;-25
2021/12/07 08:44:43;;;;;;;17.27;10.10;;;2.90;68.60;;;;;;5036186;28;20021;-24
2021/12/07 08:47:09;;;;;;;9.77;5.70;;;3.10;69.00;;;;;;5034973;28;20111;-25
2021/12/07 08:49:35;;;;;;;13.52;7.60;;;3.30;69.00;;;;;;5036109;28;20053;-25
2021/12/07 08:52:01;;;;;;;15.25;7.30;;;3.50;69.00;;;;;;5036066;28;20022;-24
2021/12/07 08:59:48;;;;;;;8.48;4.60;;;4.10;68.10;;;;;;5036227;28;20097;-26
2021/12/07 09:02:26;;;;;;;7.88;4.28;;;4.40;68.40;;;;;;5035937;28;20034;-26
2021/12/07 09:04:53;;;;;;;6.22;3.55;;;4.60;68.40;;;;;;5035870;28;20083;-25
2021/12/07 09:07:21;;;;;;;8.38;3.60;;;4.80;68.40;;;;;;5036067;28;20037;-24
2021/12/07 09:09:48;;;;;;;8.07;3.75;;;5.00;68.40;;;;;;5035586;28;20116;-24
2021/12/07 09:12:16;;;;;;;5.90;3.50;;;5.10;68.40;;;;;;5035449;28;20037;-26
2021/12/07 09:14:43;;;;;;;5.90;3.45;;;5.40;68.20;;;;;;5035524;28;20485;-24
2021/12/07 09:17:11;;;;;;;5.90;3.50;;;5.60;68.10;;;;;;5034048;28;20108;-25
2021/12/07 09:19:38;;;;;;;7.68;4.65;;;5.80;68.10;;;;;;5035521;28;20076;-24
2021/12/07 09:22:06;;;;;;;8.30;4.25;;;5.90;68.10;;;;;;5035884;28;20033;-25
2021/12/07 09:24:32;;;;;;;9.50;6.18;;;6.10;67.90;;;;;;5035547;28;20025;-25
2021/12/07 09:26:59;;;;;;;7.13;4.07;;;6.30;68.10;;;;;;5035645;28;20037;-24
2021/12/07 09:29:26;;;;;;;7.72;4.38;;;6.40;67.60;;;;;;5035739;28;20112;-24
2021/12/07 09:31:52;;;;;;;9.55;6.15;;;6.50;68.00;;;;;;5035312;28;20037;-24
2021/12/07 09:34:18;;;;;;;6.45;4.03;;;6.70;68.10;;;;;;5034993;28;20057;-25
2021/12/07 09:36:45;;;;;;;13.05;7.35;;;6.80;68.40;;;;;;5035516;28;20025;-24
2021/12/07 09:39:17;;;;;;;6.28;3.67;;;6.90;67.80;;;;;;5035243;28;20048;-24
2021/12/07 09:41:45;;;;;;;7.18;3.92;;;7.00;68.30;;;;;;5035451;28;20025;-23
2021/12/07 09:44:11;;;;;;;4.95;3.20;;;7.20;68.60;;;;;;5035758;28;20022;-24
2021/12/07 09:46:39;;;;;;;9.13;5.47;;;7.30;68.70;;;;;;5034859;28;20505;-24
2021/12/07 09:49:07;;;;;;;10.80;6.70;;;7.50;68.40;;;;;;5035320;28;20030;-24
2021/12/07 09:51:35;;;;;;;7.65;4.85;;;7.60;68.40;;;;;;5035307;28;20029;-24
2021/12/07 09:54:04;;;;;;;8.40;4.90;;;7.80;68.40;;;;;;5035129;28;20041;-24
2021/12/07 09:56:30;;;;;;;7.03;4.25;;;7.90;68.10;;;;;;5033370;28;20112;-24
2021/12/07 09:58:58;;;;;;;10.60;5.85;;;8.10;67.60;;;;;;5034830;28;20038;-24
2021/12/07 10:01:26;;;;;;;5.32;2.95;;;8.20;67.90;;;;;;5034789;28;20493;-23
2021/12/07 10:03:52;;;;;;;5.00;3.08;;;8.40;67.80;;;;;;5034719;28;20033;-24
2021/12/07 10:06:20;;;;;;;11.57;7.05;;;8.60;67.90;;;;;;5034809;28;20025;-25
2021/12/07 10:08:47;;;;;;;6.55;4.22;;;8.90;67.60;;;;;;5035536;28;20032;-24
2021/12/07 10:11:16;;;;;;;5.43;3.55;;;9.00;67.00;;;;;;5034529;28;20108;-25
2021/12/07 10:13:45;;;;;;;6.07;3.10;;;9.30;67.00;;;;;;5034655;28;20021;-24
2021/12/07 10:16:14;;;;;;;6.28;3.58;;;9.50;66.80;;;;;;5034359;28;20025;-24
2021/12/07 10:18:42;;;;;;;7.97;4.90;;;9.70;66.40;;;;;;5034440;28;20041;-25
2021/12/07 10:21:14;;;;;;;4.95;3.40;;;9.90;66.20;;;;;;5034387;28;20030;-25
2021/12/07 10:23:48;;;;;;;6.15;3.65;;;10.20;65.80;;;;;;5034396;28;20112;-24
2021/12/07 10:26:17;;;;;;;5.38;3.22;;;10.40;65.40;;;;;;5034289;28;20381;-24
2021/12/07 10:28:51;;;;;;;7.30;4.15;;;10.60;64.70;;;;;;5033864;28;20099;-24
2021/12/07 10:31:41;;;;;;;7.93;4.45;;;10.80;64.40;;;;;;5034288;28;20075;-24
2021/12/07 10:34:13;;;;;;;12.07;7.35;;;11.00;63.30;;;;;;5034289;28;20124;-25
2021/12/07 10:36:47;;;;;;;9.43;5.60;;;11.20;63.40;;;;;;5034135;28;20079;-24
2021/12/07 10:39:18;;;;;;;9.57;6.05;;;11.40;62.70;;;;;;5034560;28;20022;-25
2021/12/07 10:41:53;;;;;;;13.48;8.63;;;11.50;62.30;;;;;;5034082;28;20022;-26
2021/12/07 10:44:30;;;;;;;10.52;6.85;;;11.70;61.10;;;;;;5033761;28;20036;-25
2021/12/07 10:46:59;;;;;;;8.63;5.20;;;11.80;60.80;;;;;;5033977;28;20509;-24
2021/12/07 10:49:30;;;;;;;8.30;4.40;;;11.90;60.50;;;;;;5033842;28;20030;-24
2021/12/07 10:52:18;;;;;;;6.82;4.78;;;12.00;60.00;;;;;;5033798;28;20041;-24
2021/12/07 10:55:00;;;;;;;7.25;4.70;;;12.20;59.90;;;;;;5033636;28;20044;-24
2021/12/07 10:57:38;;;;;;;6.93;4.82;;;12.30;59.40;;;;;;5034076;28;20034;-23
2021/12/07 11:00:23;;;;;;;10.45;5.97;;;12.40;59.10;;;;;;5033735;28;20025;-25
2021/12/07 11:03:00;;;;;;;8.57;4.65;;;12.50;58.70;;;;;;5033996;28;20112;-24
2021/12/07 11:05:36;;;;;;;8.20;5.35;;;12.60;58.30;;;;;;5033925;28;20116;-24
2021/12/07 11:08:05;;;;;;;6.47;4.30;;;12.70;58.10;;;;;;5033845;28;20369;-24
2021/12/07 11:10:38;;;;;;;5.18;3.63;;;12.80;57.70;;;;;;5033066;28;20079;-24
2021/12/07 11:15:56;;;;;;;5.03;2.90;;;13.00;57.00;;;;;;5033992;28;20794;-25
2021/12/07 11:18:28;;;;;;;4.35;2.90;;;13.20;56.40;;;;;;5033242;28;20037;-24
2021/12/07 11:21:11;;;;;;;5.68;3.38;;;13.30;55.70;;;;;;5033671;28;20025;-25
2021/12/07 11:23:44;;;;;;;4.22;3.00;;;13.50;55.60;;;;;;5033420;28;20022;-24
2021/12/07 11:31:42;;;;;;;4.82;3.00;;;13.90;54.00;;;;;;5033749;28;20086;-25
2021/12/07 11:34:16;;;;;;;3.70;2.60;;;14.00;53.60;;;;;;5032911;28;20404;-24
2021/12/07 11:36:50;;;;;;;3.03;2.35;;;14.10;53.30;;;;;;5033184;28;20021;-25
2021/12/07 11:39:38;;;;;;;5.15;3.60;;;14.20;52.80;;;;;;5033159;28;20385;-24
2021/12/07 11:42:14;;;;;;;4.50;2.50;;;14.30;50.90;;;;;;5033426;28;20025;-24
2021/12/07 11:44:50;;;;;;;3.03;2.40;;;14.40;51.50;;;;;;5033087;28;20026;-24
2021/12/07 11:47:23;;;;;;;2.97;2.30;;;14.50;51.40;;;;;;5033474;28;20053;-25
2021/12/07 11:49:49;;;;;;;4.22;2.90;;;14.60;51.30;;;;;;5032261;28;20082;-25
2021/12/07 11:52:15;;;;;;;3.83;2.70;;;14.80;51.40;;;;;;5033132;28;20478;-26
2021/12/07 11:54:43;;;;;;;3.47;2.60;;;14.80;51.00;;;;;;5032922;28;20025;-25
2021/12/07 11:57:14;;;;;;;3.65;2.40;;;14.90;50.50;;;;;;5032854;28;20034;-25
2021/12/07 11:59:41;;;;;;;3.75;2.55;;;15.00;50.30;;;;;;5033021;28;20021;-24
2021/12/07 12:02:08;;;;;;;5.30;2.58;;;15.10;50.10;;;;;;5032888;28;20041;-25
2021/12/07 12:04:34;;;;;;;6.65;4.53;;;15.20;49.80;;;;;;5033291;28;20021;-25
2021/12/07 12:07:01;;;;;;;5.70;3.25;;;15.30;49.30;;;;;;5033299;28;20121;-24
2021/12/07 12:09:28;;;;;;;7.53;3.70;;;15.40;49.10;;;;;;5033167;28;20030;-24
2021/12/07 12:12:27;;;;;;;8.32;5.22;;;15.50;48.90;;;;;;5033060;28;20108;-26
2021/12/07 12:15:08;;;;;;;4.30;3.08;;;15.70;47.10;;;;;;5032798;28;20374;-24
2021/12/07 12:17:52;;;;;;;5.00;3.55;;;15.90;48.00;;;;;;5033147;28;20071;-24
2021/12/07 12:20:44;;;;;;;6.78;4.30;;;16.00;46.10;;;;;;5032539;28;20500;-25
2021/12/07 12:23:24;;;;;;;4.65;2.97;;;16.00;47.70;;;;;;5032701;28;20481;-24
2021/12/07 12:25:56;;;;;;;6.43;2.92;;;16.00;47.80;;;;;;5032632;28;20025;-25
2021/12/07 12:28:32;;;;;;;4.35;2.60;;;16.10;47.80;;;;;;5032855;28;20030;-25
2021/12/07 12:30:58;;;;;;;4.28;2.92;;;16.10;48.20;;;;;;5032931;28;20017;-25
2021/12/07 12:33:24;;;;;;;5.05;3.20;;;16.10;48.10;;;;;;5032648;28;20046;-25
2021/12/07 12:35:54;;;;;;;5.05;3.63;;;16.10;48.00;;;;;;5032816;28;20087;-25
2021/12/07 12:38:27;;;;;;;5.18;3.03;;;16.00;47.90;;;;;;5032702;28;20026;-25
2021/12/07 12:41:01;;;;;;;;;;;16.00;47.20;;;;;;5033652;28;20083;-24
2021/12/07 12:43:46;;;;;;;2.72;2.00;;;15.90;46.50;;;;;;5031288;28;19905;-24
2021/12/07 12:46:18;;;;;;;4.60;2.80;;;15.90;47.60;;;;;;5032543;28;20076;-24
2021/12/07 12:48:48;;;;;;;3.67;2.60;;;15.90;47.50;;;;;;5032577;28;20026;-25
2021/12/07 12:51:15;;;;;;;5.10;3.25;;;15.90;47.60;;;;;;5032186;28;20021;-26
2021/12/07 12:53:43;;;;;;;4.35;2.50;;;15.90;47.50;;;;;;5035527;28;20079;-24
2021/12/07 12:56:15;;;;;;;4.05;2.70;;;15.90;47.40;;;;;;5034549;28;20122;-25
2021/12/07 12:58:44;;;;;;;2.67;2.08;;;16.00;47.60;;;;;;5036306;28;20107;-25
2021/12/07 13:01:21;;;;;;;2.95;2.35;;;16.00;47.60;;;;;;5035873;28;20111;-25
2021/12/07 13:04:02;;;;;;;3.33;2.70;;;16.10;47.60;;;;;;5035772;28;20041;-25
2021/12/07 13:06:37;;;;;;;5.22;3.05;;;16.10;47.40;;;;;;5035952;28;20033;-25
2021/12/07 13:09:10;;;;;;;2.47;1.90;;;16.30;46.80;;;;;;5036625;28;20034;-25
2021/12/07 13:11:39;;;;;;;3.22;1.90;;;16.30;47.20;;;;;;5035634;28;20033;-25
2021/12/07 13:14:11;;;;;;;3.55;1.90;;;16.40;47.20;;;;;;5035640;28;20387;-25
2021/12/07 13:16:39;;;;;;;2.90;2.22;;;16.40;47.00;;;;;;5035438;28;20030;-25
2021/12/07 13:19:08;;;;;;;4.25;3.25;;;16.40;47.40;;;;;;5035608;28;20083;-24
2021/12/07 13:21:41;;;;;;;4.10;2.63;;;16.40;47.00;;;;;;5035597;28;20121;-25
2021/12/07 13:24:20;;;;;;;5.10;3.37;;;16.50;46.90;;;;;;5035801;28;20108;-25
2021/12/07 13:26:53;;;;;;;7.28;4.18;;;16.60;46.80;;;;;;5035638;28;20076;-24
2021/12/07 13:29:20;;;;;;;;;;;16.60;46.50;;;;;;5036024;28;20022;-22
2021/12/07 13:31:51;;;;;;;8.57;4.13;;;16.60;45.00;;;;;;5035345;28;19909;-25
2021/12/07 13:34:29;;;;;;;5.28;2.92;;;16.60;46.40;;;;;;5034888;28;20043;-26
2021/12/07 13:36:57;;;;;;;6.68;3.47;;;16.60;46.50;;;;;;5035274;28;20076;-25
2021/12/07 13:39:23;;;;;;;8.10;4.05;;;16.60;46.00;;;;;;5035212;28;20049;-24
2021/12/07 13:42:10;;;;;;;4.00;2.72;;;16.60;46.30;;;;;;5035370;28;20056;-24
2021/12/07 13:45:03;;;;;;;3.17;2.40;;;16.60;46.20;;;;;;5034838;28;20079;-25
2021/12/07 13:47:32;;;;;;;3.88;2.75;;;16.70;46.20;;;;;;5031366;28;20086;-25
2021/12/07 13:50:07;;;;;;;5.03;3.05;;;16.70;46.00;;;;;;5035177;28;20071;-24
2021/12/07 13:52:37;;;;;;;3.65;2.95;;;16.70;45.80;;;;;;5034808;28;20025;-24
2021/12/07 13:55:09;;;;;;;4.15;2.65;;;16.70;45.60;;;;;;5034830;28;20044;-24
2021/12/07 13:57:39;;;;;;;3.22;2.47;;;16.70;45.60;;;;;;5035180;28;20549;-23
2021/12/07 14:00:17;;;;;;;4.57;2.75;;;16.70;45.60;;;;;;5035391;28;20088;-23
2021/12/07 14:02:49;;;;;;;3.92;2.38;;;16.70;45.40;;;;;;5034670;28;20483;-22
2021/12/07 14:05:27;;;;;;;3.17;2.38;;;16.70;45.60;;;;;;5033975;28;20112;-23
2021/12/07 14:07:56;;;;;;;3.08;2.10;;;16.60;45.50;;;;;;5035215;28;20025;-23
2021/12/07 14:10:31;;;;;;;2.60;1.90;;;16.60;45.60;;;;;;5034596;28;20029;-24
2021/12/07 14:12:59;;;;;;;2.72;2.17;;;16.60;45.50;;;;;;5034800;28;20120;-23
2021/12/07 14:15:37;;;;;;;2.80;2.33;;;16.70;45.80;;;;;;5034435;28;20022;-24
2021/12/07 14:18:06;;;;;;;3.70;2.38;;;16.60;45.60;;;;;;5034850;28;20033;-24
2021/12/07 14:20:40;;;;;;;2.08;1.70;;;16.70;45.70;;;;;;5034418;28;20428;-24
2021/12/07 14:23:27;;;;;;;2.75;2.30;;;16.60;45.60;;;;;;5034696;28;20041;-24
2021/12/07 14:25:55;;;;;;;3.13;2.58;;;16.60;45.40;;;;;;5034483;28;20029;-23
2021/12/07 14:28:46;;;;;;;3.03;2.05;;;16.60;45.50;;;;;;5034175;28;20542;-25
2021/12/07 14:31:14;;;;;;;3.97;2.50;;;16.50;45.00;;;;;;5034213;28;20032;-23
2021/12/07 14:33:50;;;;;;;3.72;2.13;;;16.40;45.50;;;;;;5034094;28;20054;-24
2021/12/07 14:36:26;;;;;;;3.72;2.42;;;16.40;45.50;;;;;;5033960;28;20034;-24
2021/12/07 14:38:55;;;;;;;4.68;2.47;;;16.40;45.60;;;;;;5034766;28;20108;-24
2021/12/07 14:41:24;;;;;;;4.45;2.55;;;16.30;45.80;;;;;;5033926;28;20021;-23